ZA-0047 weather

Augrabies Airport
Orange Falls, Northern Cape, South Africa

Public forecast

Using degrees Celsius for public forecast. Weather courtesy of forecast.io.

Closest aviation weather report (METAR) to Augrabies Airport

Closest report is Pierre Van Ryneveld Airport, 51.5 nm (95.4 km) ENE. Retrieved 2020/07/08 10:00 UTC (26 minutes ago):

FAUP 081000Z 36013KT CAVOK 23/M04 Q1021 NOSIG

Closest aviation forecast (TAF) to Augrabies Airport

Closest forecast is Pierre Van Ryneveld Airport, 51.5 nm (95.4 km) ENE. Retrieved 2020/07/08 06:00 UTC (4 hours ago):

TAF FAUP 080400Z 0806/0906 VRB03KT CAVOK TX26/0813Z TN08/0806Z BECMG 0808/0810 36020KT